createdAt,value
2017-12-06T00:00:25.557Z,96013.66
2017-12-06T00:02:52.977Z,96017.31
2017-12-06T00:05:20.319Z,96020.56
2017-12-06T00:07:47.710Z,96016.57
2017-12-06T00:10:15.067Z,96014.45
2017-12-06T00:12:42.454Z,96021.44
2017-12-06T00:15:09.794Z,96028.03
2017-12-06T00:17:37.195Z,96019.25
2017-12-06T00:20:04.568Z,96020.81
2017-12-06T00:22:31.960Z,96022.73
2017-12-06T00:24:59.317Z,96021.22
2017-12-06T00:27:26.672Z,96021.22
2017-12-06T00:29:54.076Z,96021.82
2017-12-06T00:32:21.466Z,96028.23
2017-12-06T00:34:48.803Z,96026.71
2017-12-06T00:37:16.213Z,96030.10
2017-12-06T00:39:43.603Z,96023.70
2017-12-06T00:42:10.969Z,96022.87
2017-12-06T00:44:38.315Z,96026.12
2017-12-06T00:47:05.798Z,96029.50
2017-12-06T00:49:33.194Z,96022.11
2017-12-06T00:52:00.538Z,96022.30
2017-12-06T00:54:28.012Z,96025.80
2017-12-06T00:56:55.369Z,96019.88
2017-12-06T00:59:22.721Z,96006.03
2017-12-06T01:01:50.115Z,96000.13
2017-12-06T01:04:17.503Z,96001.42
2017-12-06T01:06:44.899Z,96005.82
2017-12-06T01:09:12.338Z,96008.44
2017-12-06T01:11:39.711Z,96010.38
2017-12-06T01:14:07.051Z,96007.72
2017-12-06T01:16:34.475Z,96010.81
2017-12-06T01:19:01.818Z,96005.66
2017-12-06T01:21:29.243Z,96013.57
2017-12-06T01:23:56.668Z,95997.66
2017-12-06T01:26:24.028Z,95999.55
2017-12-06T01:28:51.375Z,96002.00
2017-12-06T01:31:18.759Z,95992.92
2017-12-06T01:33:46.111Z,95996.88
2017-12-06T01:36:13.496Z,95998.27
2017-12-06T01:38:40.904Z,95999.13
2017-12-06T01:41:08.244Z,95999.56
2017-12-06T01:43:35.660Z,95984.60
2017-12-06T01:46:03.102Z,95984.02
2017-12-06T01:48:30.552Z,95995.73
2017-12-06T01:50:57.958Z,95986.86
2017-12-06T01:53:25.346Z,95990.06
2017-12-06T01:55:52.750Z,95987.41
2017-12-06T01:58:20.092Z,95986.35
2017-12-06T02:00:47.426Z,95980.66
2017-12-06T02:03:14.938Z,95978.97
2017-12-06T02:05:42.360Z,95980.24
2017-12-06T02:08:09.724Z,95963.70
2017-12-06T02:10:37.068Z,95962.16
2017-12-06T02:13:04.456Z,95958.36
2017-12-06T02:15:31.791Z,95961.10
2017-12-06T02:17:59.150Z,95956.48
2017-12-06T02:20:26.544Z,95946.81
2017-12-06T02:22:53.948Z,95957.61
2017-12-06T02:25:21.278Z,95947.56
2017-12-06T02:27:48.669Z,95951.84
2017-12-06T02:30:16.051Z,95947.39
2017-12-06T02:32:43.385Z,95948.02
2017-12-06T02:35:10.734Z,95941.09
2017-12-06T02:37:38.167Z,95948.13
2017-12-06T02:40:05.690Z,95945.46
2017-12-06T02:42:33.051Z,95938.89
2017-12-06T02:45:00.427Z,95942.06
2017-12-06T02:47:27.839Z,95935.09
2017-12-06T02:49:55.176Z,95931.94
2017-12-06T02:52:22.514Z,95933.55
2017-12-06T02:54:49.894Z,95926.89
2017-12-06T02:57:17.387Z,95934.73
2017-12-06T02:59:44.851Z,95931.06
2017-12-06T03:02:12.215Z,95940.56
2017-12-06T03:04:39.630Z,95938.16
2017-12-06T03:07:07.032Z,95935.22
2017-12-06T03:09:34.404Z,95938.24
2017-12-06T03:12:01.782Z,95932.89
2017-12-06T03:14:29.245Z,95939.20
2017-12-06T03:16:56.588Z,95944.84
2017-12-06T03:19:24.034Z,95943.17
2017-12-06T03:21:51.374Z,95942.21
2017-12-06T03:24:18.745Z,95941.11
2017-12-06T03:26:46.190Z,95942.66
2017-12-06T03:29:13.546Z,95944.58
2017-12-06T03:31:40.929Z,95940.16
2017-12-06T03:34:08.305Z,95939.03
2017-12-06T03:36:35.698Z,95948.52
2017-12-06T03:39:03.075Z,95954.02
2017-12-06T03:41:30.434Z,95953.86
2017-12-06T03:43:57.856Z,95948.90
2017-12-06T03:46:25.298Z,95960.36
2017-12-06T03:48:52.782Z,95966.32
2017-12-06T03:51:20.135Z,95955.36
2017-12-06T03:53:47.499Z,95959.95
2017-12-06T03:56:14.877Z,95959.75
2017-12-06T03:58:42.238Z,95955.73
2017-12-06T04:01:09.571Z,95955.77
2017-12-06T04:03:36.958Z,95948.97
2017-12-06T04:06:04.334Z,95958.05
2017-12-06T04:08:31.724Z,95949.88
2017-12-06T04:10:59.211Z,95965.45
2017-12-06T04:13:26.638Z,95959.86
2017-12-06T04:15:53.979Z,95951.23
2017-12-06T04:18:21.510Z,95947.25
2017-12-06T04:20:48.943Z,95945.59
2017-12-06T04:23:16.486Z,95949.43
2017-12-06T04:25:44.053Z,95947.94
2017-12-06T04:28:11.499Z,95952.13
2017-12-06T04:30:38.901Z,95958.61
2017-12-06T04:33:06.323Z,95957.50
2017-12-06T04:35:33.751Z,95958.24
2017-12-06T04:38:01.226Z,95953.61
2017-12-06T04:40:28.638Z,95959.88
2017-12-06T04:42:56.259Z,95958.73
2017-12-06T04:45:23.699Z,95954.59
2017-12-06T04:47:51.131Z,95954.24
2017-12-06T04:50:18.578Z,95956.35
2017-12-06T04:52:45.970Z,95952.75
2017-12-06T04:55:13.368Z,95950.46
2017-12-06T04:57:40.878Z,95954.25
2017-12-06T05:00:08.284Z,95958.27
2017-12-06T05:02:35.868Z,95953.18
2017-12-06T05:05:03.359Z,95947.10
2017-12-06T05:07:32.065Z,95947.30
2017-12-06T05:09:59.492Z,95943.70
2017-12-06T05:12:26.886Z,95951.27
2017-12-06T05:14:54.327Z,95953.57
2017-12-06T05:17:21.773Z,95958.72
2017-12-06T05:19:49.243Z,95952.83
2017-12-06T05:22:16.698Z,95960.23
2017-12-06T05:24:44.082Z,95954.77
2017-12-06T05:27:11.547Z,95960.63
2017-12-06T05:29:39.083Z,95968.03
2017-12-06T05:32:06.471Z,95964.44
2017-12-06T05:34:33.884Z,95965.00
2017-12-06T05:37:01.280Z,95969.37
2017-12-06T05:39:28.706Z,95970.70
2017-12-06T05:41:56.094Z,95972.84
2017-12-06T05:44:23.512Z,95968.84
2017-12-06T05:46:50.894Z,95965.80
2017-12-06T05:49:18.312Z,95969.05
2017-12-06T05:51:45.679Z,95969.22
2017-12-06T05:54:13.202Z,95967.51
2017-12-06T05:56:40.595Z,95965.44
2017-12-06T05:59:07.968Z,95964.48
2017-12-06T06:01:35.400Z,95963.77
2017-12-06T06:04:02.835Z,95963.53
2017-12-06T06:06:30.259Z,95973.45
2017-12-06T06:08:57.763Z,95982.38
2017-12-06T06:11:25.272Z,95978.19
2017-12-06T06:13:52.635Z,95988.64
2017-12-06T06:16:20.028Z,95988.07
2017-12-06T06:18:47.527Z,95989.59
2017-12-06T06:21:14.972Z,95993.94
2017-12-06T06:23:42.410Z,95995.84
2017-12-06T06:26:09.891Z,95999.25
2017-12-06T06:28:37.309Z,95995.47
2017-12-06T06:31:04.686Z,95997.97
2017-12-06T06:33:32.101Z,95996.62
2017-12-06T06:35:59.507Z,96005.17
2017-12-06T06:38:26.898Z,95999.87
2017-12-06T06:40:54.319Z,95991.34
2017-12-06T06:43:21.730Z,96003.11
2017-12-06T06:45:49.239Z,96007.30
2017-12-06T06:48:16.667Z,96013.56
2017-12-06T06:50:44.148Z,96023.44
2017-12-06T06:53:11.579Z,96016.02
2017-12-06T06:55:38.997Z,96024.19
2017-12-06T06:58:06.399Z,96025.70
2017-12-06T07:00:33.820Z,96030.27
2017-12-06T07:03:01.412Z,96020.95
2017-12-06T07:05:28.883Z,96024.01
2017-12-06T07:07:56.295Z,96034.27
2017-12-06T07:10:23.661Z,96028.01
2017-12-06T07:12:51.115Z,96027.63
2017-12-06T07:15:18.610Z,96026.48
2017-12-06T07:17:46.048Z,96016.63
2017-12-06T07:20:13.549Z,96016.05
2017-12-06T07:22:41.176Z,96024.43
2017-12-06T07:25:08.574Z,96011.70
2017-12-06T07:27:35.985Z,96016.45
2017-12-06T07:30:03.446Z,96024.04
2017-12-06T07:32:30.829Z,96025.39
2017-12-06T07:34:58.219Z,96028.22
2017-12-06T07:37:25.661Z,96028.59
2017-12-06T07:39:53.040Z,96028.78
2017-12-06T07:42:20.396Z,96036.38
2017-12-06T07:44:47.969Z,96034.09
2017-12-06T07:47:15.420Z,96038.67
2017-12-06T07:49:42.855Z,96038.88
2017-12-06T07:52:10.259Z,96027.84
2017-12-06T07:54:37.626Z,96035.80
2017-12-06T07:57:05.069Z,96037.73
2017-12-06T07:59:32.482Z,96019.88
2017-12-06T08:01:59.920Z,96024.42
2017-12-06T08:04:27.349Z,96027.28
2017-12-06T08:06:54.919Z,96032.77
2017-12-06T08:09:22.395Z,96025.56
2017-12-06T08:11:49.952Z,96031.83
2017-12-06T08:14:17.414Z,96041.55
2017-12-06T08:16:44.849Z,96043.64
2017-12-06T08:19:12.257Z,96049.92
2017-12-06T08:21:39.818Z,96051.63
2017-12-06T08:24:07.202Z,96057.88
2017-12-06T08:26:34.807Z,96050.07
2017-12-06T08:29:02.284Z,96057.13
2017-12-06T08:31:29.901Z,96052.37
2017-12-06T08:33:57.367Z,96052.97
2017-12-06T08:36:24.831Z,96050.69
2017-12-06T08:38:53.267Z,96050.12
2017-12-06T08:41:20.928Z,96050.67
2017-12-06T08:43:48.542Z,96045.75
2017-12-06T08:46:16.074Z,96039.30
2017-12-06T08:48:44.302Z,96035.88
2017-12-06T08:51:11.839Z,96046.50
2017-12-06T08:53:39.411Z,96047.27
2017-12-06T08:56:07.174Z,96047.25
2017-12-06T08:58:34.633Z,96049.72
2017-12-06T09:01:02.169Z,96040.98
2017-12-06T09:03:29.575Z,96048.98
2017-12-06T09:05:57.003Z,96053.15
2017-12-06T09:08:24.459Z,96057.14
2017-12-06T09:10:51.875Z,96048.59
2017-12-06T09:13:19.333Z,96051.06
2017-12-06T09:15:46.781Z,96025.42
2017-12-06T09:18:14.187Z,96043.06
2017-12-06T09:20:41.684Z,96039.47
2017-12-06T09:23:09.210Z,96053.51
2017-12-06T09:25:36.597Z,96043.07
2017-12-06T09:28:03.991Z,96048.20
2017-12-06T09:30:31.862Z,96031.86
2017-12-06T09:32:59.268Z,96025.02
2017-12-06T09:35:26.677Z,96043.63
2017-12-06T09:37:54.136Z,96043.25
2017-12-06T09:40:21.620Z,96013.26
2017-12-06T09:42:49.060Z,96029.19
2017-12-06T09:45:16.508Z,96022.71
2017-12-06T09:47:43.935Z,96013.96
2017-12-06T09:50:11.542Z,96012.07
2017-12-06T09:52:38.961Z,96020.80
2017-12-06T09:55:06.351Z,96004.30
2017-12-06T09:57:33.813Z,95996.70
2017-12-06T10:00:01.269Z,95991.01
2017-12-06T10:02:28.705Z,95998.18
2017-12-06T10:04:56.134Z,96006.72
2017-12-06T10:07:23.536Z,96008.47
2017-12-06T10:09:51.250Z,96008.27
2017-12-06T10:12:18.712Z,96004.27
2017-12-06T10:14:46.136Z,95991.70
2017-12-06T10:17:13.555Z,95970.27
2017-12-06T10:19:41.000Z,95995.88
2017-12-06T10:22:08.428Z,95967.05
2017-12-06T10:24:35.837Z,95985.23
2017-12-06T10:27:03.312Z,95964.35
2017-12-06T10:29:31.600Z,95973.45
2017-12-06T10:31:59.042Z,95957.88
2017-12-06T10:34:26.466Z,95971.15
2017-12-06T10:36:53.885Z,95961.66
2017-12-06T10:39:21.355Z,95969.85
2017-12-06T10:41:48.785Z,95966.42
2017-12-06T10:44:16.244Z,95975.53
2017-12-06T10:46:43.654Z,95971.88
2017-12-06T10:49:11.122Z,95964.28
2017-12-06T10:51:38.506Z,95960.81
2017-12-06T10:54:06.029Z,95939.80
2017-12-06T10:56:33.476Z,95943.83
2017-12-06T10:59:00.862Z,95961.63
2017-12-06T11:01:28.247Z,95950.45
2017-12-06T11:03:55.696Z,95957.06
2017-12-06T11:06:23.156Z,95960.07
2017-12-06T11:08:50.558Z,95944.11
2017-12-06T11:11:17.957Z,95945.22
2017-12-06T11:13:45.404Z,95950.41
2017-12-06T11:16:12.979Z,95963.64
2017-12-06T11:18:40.554Z,95953.98
2017-12-06T11:21:07.962Z,95967.84
2017-12-06T11:23:35.334Z,95977.48
2017-12-06T11:26:02.794Z,95972.75
2017-12-06T11:28:30.254Z,95967.42
2017-12-06T11:30:57.711Z,95973.52
2017-12-06T11:33:25.230Z,95958.15
2017-12-06T11:35:52.724Z,95968.76
2017-12-06T11:38:20.413Z,95967.38
2017-12-06T11:40:47.822Z,95965.40
2017-12-06T11:43:15.252Z,95953.42
2017-12-06T11:45:42.946Z,95983.36
2017-12-06T11:48:10.503Z,95967.77
2017-12-06T11:50:37.882Z,95963.98
2017-12-06T11:53:05.367Z,95960.93
2017-12-06T11:55:32.913Z,95948.99
2017-12-06T11:58:00.360Z,95956.77
2017-12-06T12:00:27.750Z,95941.34
2017-12-06T12:02:55.471Z,95924.30
2017-12-06T12:05:22.884Z,95951.77
2017-12-06T12:07:50.372Z,95932.64
2017-12-06T12:10:17.893Z,95939.84
2017-12-06T12:12:45.300Z,95939.41
2017-12-06T12:15:12.702Z,95939.36
2017-12-06T12:17:40.118Z,95937.30
2017-12-06T12:20:07.604Z,95937.25
2017-12-06T12:22:35.064Z,95908.92
2017-12-06T12:25:02.455Z,95931.97
2017-12-06T12:27:29.932Z,95940.30
2017-12-06T12:29:57.428Z,95932.48
2017-12-06T12:32:24.849Z,95916.42
2017-12-06T12:34:52.448Z,95924.16
2017-12-06T12:37:20.350Z,95916.94
2017-12-06T12:39:48.069Z,95930.59
2017-12-06T12:42:15.525Z,95913.15
2017-12-06T12:44:42.911Z,95931.53
2017-12-06T12:47:10.367Z,95907.67
2017-12-06T12:49:37.792Z,95922.05
2017-12-06T12:52:05.332Z,95909.72
2017-12-06T12:54:32.756Z,95911.98
2017-12-06T12:57:00.340Z,95904.94
2017-12-06T12:59:27.778Z,95914.22
2017-12-06T13:01:55.213Z,95900.34
2017-12-06T13:04:23.579Z,95899.41
2017-12-06T13:06:51.046Z,95893.89
2017-12-06T13:09:18.541Z,95870.20
2017-12-06T13:11:45.965Z,95893.84
2017-12-06T13:14:13.470Z,95882.25
2017-12-06T13:16:40.945Z,95900.14
2017-12-06T13:19:08.363Z,95896.17
2017-12-06T13:21:35.801Z,95900.70
2017-12-06T13:24:03.374Z,95894.08
2017-12-06T13:26:30.900Z,95921.41
2017-12-06T13:28:58.442Z,95916.50
2017-12-06T13:31:26.062Z,95912.52
2017-12-06T13:33:53.880Z,95913.27
2017-12-06T13:36:21.465Z,95914.64
2017-12-06T13:38:53.606Z,95904.77
2017-12-06T13:41:23.177Z,95909.33
2017-12-06T13:43:50.605Z,95908.00
2017-12-06T13:46:19.074Z,95911.59
2017-12-06T13:48:46.595Z,95919.20
2017-12-06T13:51:14.176Z,95919.38
2017-12-06T13:53:41.671Z,95911.00
2017-12-06T13:56:09.354Z,95933.20
2017-12-06T13:58:36.810Z,95931.88
2017-12-06T14:01:04.734Z,95937.05
2017-12-06T14:03:32.859Z,95929.73
2017-12-06T14:06:00.404Z,95924.49
2017-12-06T14:08:28.330Z,95924.14
2017-12-06T14:10:55.870Z,95935.31
2017-12-06T14:13:23.385Z,95918.72
2017-12-06T14:15:50.936Z,95920.89
2017-12-06T14:18:18.383Z,95928.11
2017-12-06T14:20:45.812Z,95918.80
2017-12-06T14:23:13.272Z,95926.56
2017-12-06T14:25:41.397Z,95927.37
2017-12-06T14:28:09.391Z,95925.26
2017-12-06T14:30:36.966Z,95916.32
2017-12-06T14:33:04.560Z,95921.09
2017-12-06T14:35:32.012Z,95912.98
2017-12-06T14:37:59.463Z,95910.84
2017-12-06T14:40:27.730Z,95911.00
2017-12-06T14:42:55.450Z,95924.88
2017-12-06T14:45:22.845Z,95916.33
2017-12-06T14:53:38.722Z,95927.75
2017-12-06T14:56:06.223Z,95912.00
2017-12-06T14:58:33.832Z,95915.01
2017-12-06T15:01:01.366Z,95903.06
2017-12-06T15:03:28.910Z,95916.55
2017-12-06T15:05:57.286Z,95907.83
2017-12-06T15:08:25.641Z,95909.70
2017-12-06T15:10:57.675Z,95923.16
2017-12-06T15:17:55.618Z,95932.30
2017-12-06T15:24:23.612Z,95930.59
2017-12-06T15:26:52.026Z,95911.44
2017-12-06T15:29:34.711Z,95916.56
2017-12-06T15:32:02.633Z,95929.26
2017-12-06T15:34:30.186Z,95915.22
2017-12-06T15:36:57.672Z,95913.89
2017-12-06T15:39:25.137Z,95901.68
2017-12-06T15:41:52.514Z,95911.05
2017-12-06T15:44:19.941Z,95907.83
2017-12-06T15:46:47.403Z,95900.34
2017-12-06T15:49:14.785Z,95878.59
2017-12-06T15:51:42.142Z,95900.61
2017-12-06T15:54:09.568Z,95896.23
2017-12-06T15:56:36.964Z,95880.16
2017-12-06T15:59:05.217Z,95894.56
2017-12-06T16:01:32.719Z,95900.05
2017-12-06T16:04:00.180Z,95902.89
2017-12-06T16:06:27.588Z,95902.33
2017-12-06T16:08:55.037Z,95903.11
2017-12-06T16:11:22.463Z,95890.35
2017-12-06T16:13:49.842Z,95896.46
2017-12-06T16:16:17.333Z,95883.36
2017-12-06T16:18:44.785Z,95894.34
2017-12-06T16:21:12.240Z,95880.54
2017-12-06T16:23:39.702Z,95877.53
2017-12-06T16:26:07.185Z,95883.03
2017-12-06T16:28:34.662Z,95883.03
2017-12-06T16:31:02.123Z,95886.03
2017-12-06T16:33:29.504Z,95881.30
2017-12-06T16:35:56.917Z,95890.41
2017-12-06T16:38:24.348Z,95874.16
2017-12-06T16:40:51.762Z,95880.58
2017-12-06T16:43:19.124Z,95874.11
2017-12-06T16:45:46.662Z,95872.94
2017-12-06T16:48:14.045Z,95881.75
2017-12-06T16:50:41.469Z,95873.63
2017-12-06T16:53:08.864Z,95888.02
2017-12-06T16:55:36.225Z,95877.80
2017-12-06T16:58:03.599Z,95885.95
2017-12-06T17:00:31.041Z,95880.64
2017-12-06T17:02:58.465Z,95894.72
2017-12-06T17:05:25.906Z,95888.24
2017-12-06T17:07:53.274Z,95891.67
2017-12-06T17:10:20.699Z,95895.06
2017-12-06T17:12:48.107Z,95889.19
2017-12-06T17:15:15.512Z,95894.16
2017-12-06T17:17:42.905Z,95894.00
2017-12-06T17:20:10.294Z,95897.59
2017-12-06T17:22:37.690Z,95897.60
2017-12-06T17:25:05.056Z,95888.66
2017-12-06T17:27:32.420Z,95882.61
2017-12-06T17:29:59.816Z,95884.72
2017-12-06T17:32:27.222Z,95897.43
2017-12-06T17:34:54.618Z,95892.14
2017-12-06T17:37:22.061Z,95894.59
2017-12-06T17:39:49.454Z,95874.47
2017-12-06T17:42:16.853Z,95891.94
2017-12-06T17:44:44.247Z,95882.63
2017-12-06T17:47:11.627Z,95875.59
2017-12-06T17:49:38.972Z,95878.25
2017-12-06T17:52:06.419Z,95885.32
2017-12-06T17:54:33.759Z,95875.42
2017-12-06T17:57:01.129Z,95864.03
2017-12-06T17:59:28.567Z,95885.15
2017-12-06T18:01:55.934Z,95874.69
2017-12-06T18:04:23.350Z,95890.27
2017-12-06T18:06:50.701Z,95895.61
2017-12-06T18:09:18.129Z,95885.36
2017-12-06T18:11:45.510Z,95883.29
2017-12-06T18:14:12.938Z,95884.80
2017-12-06T18:16:40.375Z,95872.65
2017-12-06T18:19:07.842Z,95865.80
2017-12-06T18:21:35.302Z,95875.31
2017-12-06T18:24:02.709Z,95873.98
2017-12-06T18:26:30.118Z,95845.55
2017-12-06T18:28:57.463Z,95870.94
2017-12-06T18:31:24.890Z,95870.58
2017-12-06T18:33:52.339Z,95868.69
2017-12-06T18:36:19.841Z,95854.86
2017-12-06T18:38:47.459Z,95875.13
2017-12-06T18:41:15.008Z,95876.67
2017-12-06T18:43:42.446Z,95875.55
2017-12-06T18:46:09.801Z,95885.98
2017-12-06T18:48:37.205Z,95890.70
2017-12-06T18:51:04.659Z,95877.61
2017-12-06T18:53:32.092Z,95876.48
2017-12-06T18:55:59.582Z,95871.94
2017-12-06T18:58:27.064Z,95870.22
2017-12-06T19:00:54.470Z,95887.13
2017-12-06T19:03:21.870Z,95865.31
2017-12-06T19:05:49.328Z,95871.94
2017-12-06T19:08:16.690Z,95871.94
2017-12-06T19:10:44.082Z,95869.48
2017-12-06T19:13:11.491Z,95863.02
2017-12-06T19:15:38.876Z,95866.23
2017-12-06T19:18:06.271Z,95858.84
2017-12-06T19:20:33.668Z,95857.16
2017-12-06T19:23:01.075Z,95853.38
2017-12-06T19:25:28.505Z,95842.94
2017-12-06T19:27:55.923Z,95854.12
2017-12-06T19:30:23.271Z,95848.63
2017-12-06T19:32:50.666Z,95856.77
2017-12-06T19:35:18.059Z,95850.51
2017-12-06T19:37:45.479Z,95848.80
2017-12-06T19:40:12.847Z,95852.22
2017-12-06T19:42:40.270Z,95834.79
2017-12-06T19:45:07.702Z,95840.46
2017-12-06T19:47:35.091Z,95845.98
2017-12-06T19:50:02.459Z,95829.83
2017-12-06T19:52:29.926Z,95829.09
2017-12-06T19:54:57.376Z,95836.12
2017-12-06T19:57:24.753Z,95833.07
2017-12-06T19:59:52.136Z,95844.09
2017-12-06T20:02:19.549Z,95837.41
2017-12-06T20:04:46.950Z,95836.28
2017-12-06T20:07:14.317Z,95844.63
2017-12-06T20:09:41.730Z,95843.31
2017-12-06T20:12:09.098Z,95841.59
2017-12-06T20:14:36.470Z,95819.80
2017-12-06T20:17:03.900Z,95825.88
2017-12-06T20:19:31.295Z,95837.44
2017-12-06T20:21:58.671Z,95812.75
2017-12-06T20:24:26.163Z,95841.59
2017-12-06T20:26:53.648Z,95844.84
2017-12-06T20:29:21.124Z,95830.23
2017-12-06T20:31:48.546Z,95837.45
2017-12-06T20:34:16.054Z,95836.91
2017-12-06T20:36:43.475Z,95838.59
2017-12-06T20:39:10.889Z,95849.97
2017-12-06T20:41:38.404Z,95843.17
2017-12-06T20:44:05.888Z,95834.05
2017-12-06T20:46:33.299Z,95829.89
2017-12-06T20:49:00.711Z,95832.72
2017-12-06T20:51:28.154Z,95831.77
2017-12-06T20:53:55.524Z,95850.00
2017-12-06T20:56:22.932Z,95841.83
2017-12-06T20:58:50.339Z,95836.51
2017-12-06T21:01:17.806Z,95844.11
2017-12-06T21:03:45.198Z,95844.08
2017-12-06T21:06:12.616Z,95842.97
2017-12-06T21:08:40.014Z,95840.88
2017-12-06T21:11:07.429Z,95848.28
2017-12-06T21:13:34.807Z,95842.93
2017-12-06T21:16:02.214Z,95856.58
2017-12-06T21:18:29.605Z,95844.27
2017-12-06T21:20:57.024Z,95834.77
2017-12-06T21:23:24.412Z,95841.02
2017-12-06T21:25:51.877Z,95841.39
2017-12-06T21:28:19.261Z,95836.06
2017-12-06T21:30:46.641Z,95837.98
2017-12-06T21:33:14.059Z,95842.71
2017-12-06T21:35:41.604Z,95848.22
2017-12-06T21:38:09.030Z,95839.70
2017-12-06T21:40:36.397Z,95839.48
2017-12-06T21:43:03.776Z,95837.41
2017-12-06T21:45:31.248Z,95836.43
2017-12-06T21:47:58.650Z,95841.38
2017-12-06T21:50:26.015Z,95840.39
2017-12-06T21:52:53.452Z,95844.41
2017-12-06T21:55:20.814Z,95851.20
2017-12-06T21:57:48.190Z,95833.76
2017-12-06T22:00:15.607Z,95841.91
2017-12-06T22:02:42.992Z,95848.15
2017-12-06T22:05:10.461Z,95848.33
2017-12-06T22:07:37.878Z,95841.88
2017-12-06T22:10:05.319Z,95848.72
2017-12-06T22:12:32.772Z,95841.67
2017-12-06T22:15:00.180Z,95850.61
2017-12-06T22:17:27.568Z,95850.58
2017-12-06T22:19:55.000Z,95859.30
2017-12-06T22:22:22.379Z,95840.45
2017-12-06T22:27:42.784Z,95851.50
2017-12-06T22:30:10.150Z,95855.11
2017-12-06T22:32:37.510Z,95840.66
2017-12-06T22:35:04.919Z,95839.37
2017-12-06T22:37:32.299Z,95842.97
2017-12-06T22:39:59.810Z,95843.30
2017-12-06T22:42:27.225Z,95835.16
2017-12-06T22:44:54.632Z,95827.17
2017-12-06T22:47:22.057Z,95837.02
2017-12-06T22:49:49.423Z,95825.27
2017-12-06T22:52:16.870Z,95830.41
2017-12-06T22:54:52.644Z,95832.26
2017-12-06T22:57:20.115Z,95828.48
2017-12-06T22:59:47.802Z,95830.77
2017-12-06T23:02:15.247Z,95831.09
2017-12-06T23:04:42.760Z,95827.53
2017-12-06T23:07:10.263Z,95819.53
2017-12-06T23:09:37.665Z,95823.91
2017-12-06T23:12:05.227Z,95814.83
2017-12-06T23:14:33.044Z,95813.12
2017-12-06T23:17:00.484Z,95814.23
2017-12-06T23:19:28.062Z,95814.25
2017-12-06T23:21:55.716Z,95796.05
2017-12-06T23:24:23.285Z,95803.61
2017-12-06T23:26:50.892Z,95802.66
2017-12-06T23:29:18.380Z,95807.02
2017-12-06T23:31:45.845Z,95801.86
2017-12-06T23:34:13.292Z,95801.67
2017-12-06T23:36:40.779Z,95790.86
2017-12-06T23:39:08.231Z,95791.24
2017-12-06T23:41:35.945Z,95791.22
2017-12-06T23:44:03.354Z,95806.42
2017-12-06T23:46:31.320Z,95790.69
2017-12-06T23:48:58.691Z,95804.46
2017-12-06T23:51:26.233Z,95796.14
2017-12-06T23:53:53.796Z,95799.17
2017-12-06T23:56:21.231Z,95803.52
2017-12-06T23:58:49.424Z,95807.48
